Terminal Aerodrome Forecast
Issued by NWS

Home | Current Version | Previous Version | Text Only | Print | Product List | Glossary On
Versions: 1 2 3 4 5 6 7 8 9 10 11 12
000
FTUS45 KRIW 191700
TAFJAC
TAF
KJAC 191720Z 1918/2018 VRB04KT P6SM SCT120
     FM191900 20011KT P6SM FEW060 SCT120
     FM200100 VRB05KT P6SM FEW080 SCT250
      AMD LTD TO CLD VIS AND WIND=

USA.gov is the U.S. government's official web portal to all federal, state and local government web resources and services.